createdAt,value
2019-02-04T00:02:28.174Z,21.30
2019-02-04T00:05:31.498Z,21.30
2019-02-04T00:08:36.096Z,21.30
2019-02-04T00:11:35.357Z,21.30
2019-02-04T00:14:39.267Z,21.30
2019-02-04T00:17:38.668Z,21.30
2019-02-04T00:20:42.362Z,21.30
2019-02-04T00:23:45.313Z,21.30
2019-02-04T00:26:51.675Z,21.30
2019-02-04T00:29:51.309Z,21.30
2019-02-04T00:32:54.325Z,21.30
2019-02-04T00:35:59.390Z,21.20
2019-02-04T00:39:03.130Z,21.20
2019-02-04T00:42:08.314Z,21.20
2019-02-04T00:45:10.781Z,21.20
2019-02-04T00:48:15.789Z,21.20
2019-02-04T00:51:16.753Z,21.10
2019-02-04T00:54:20.728Z,21.10
2019-02-04T00:57:20.019Z,21.10
2019-02-04T01:00:23.428Z,21.10
2019-02-04T01:03:27.133Z,21.00
2019-02-04T01:06:29.322Z,21.00
2019-02-04T01:09:33.271Z,21.00
2019-02-04T01:12:32.774Z,20.90
2019-02-04T01:15:31.536Z,20.90
2019-02-04T01:18:31.494Z,20.90
2019-02-04T01:21:35.154Z,20.90
2019-02-04T01:24:35.555Z,20.90
2019-02-04T01:27:34.835Z,20.80
2019-02-04T01:30:38.601Z,20.80
2019-02-04T01:33:42.434Z,20.80
2019-02-04T01:36:46.924Z,20.80
2019-02-04T01:39:50.628Z,20.70
2019-02-04T01:42:54.512Z,20.70
2019-02-04T01:45:58.692Z,20.70
2019-02-04T01:49:01.319Z,20.70
2019-02-04T01:52:05.616Z,20.70
2019-02-04T01:55:10.256Z,20.70
2019-02-04T01:58:13.253Z,20.70
2019-02-04T02:01:13.608Z,20.70
2019-02-04T02:04:17.708Z,20.70
2019-02-04T02:07:21.022Z,20.80
2019-02-04T02:10:23.704Z,20.80
2019-02-04T02:13:26.933Z,20.80
2019-02-04T02:16:33.348Z,20.90
2019-02-04T02:19:30.290Z,20.90
2019-02-04T02:22:34.398Z,20.90
2019-02-04T02:25:36.160Z,20.90
2019-02-04T02:28:42.978Z,21.00
2019-02-04T02:31:47.380Z,21.00
2019-02-04T02:34:49.839Z,21.10
2019-02-04T02:37:53.705Z,21.10
2019-02-04T02:40:54.943Z,21.10
2019-02-04T02:43:56.639Z,21.20
2019-02-04T02:46:59.599Z,21.20
2019-02-04T02:50:01.354Z,21.30
2019-02-04T02:53:00.491Z,21.30
2019-02-04T02:56:05.573Z,21.40
2019-02-04T02:59:04.996Z,21.40
2019-02-04T03:02:08.279Z,21.50
2019-02-04T03:05:09.095Z,21.60
2019-02-04T03:08:13.938Z,21.70
2019-02-04T03:11:19.338Z,21.70
2019-02-04T03:14:21.816Z,21.80
2019-02-04T03:17:28.700Z,21.80
2019-02-04T03:20:28.278Z,21.90
2019-02-04T03:23:32.980Z,22.00
2019-02-04T03:26:34.086Z,22.00
2019-02-04T03:29:35.339Z,22.10
2019-02-04T03:32:38.638Z,22.10
2019-02-04T03:35:46.193Z,22.20
2019-02-04T03:38:45.196Z,22.20
2019-02-04T03:41:45.994Z,22.30
2019-02-04T03:44:50.761Z,22.30
2019-02-04T03:48:43.859Z,22.40
2019-02-04T03:54:40.503Z,22.50
2019-02-04T03:57:44.289Z,22.50
2019-02-04T04:22:03.119Z,22.70
2019-02-04T04:25:04.422Z,24.00
2019-02-04T04:27:59.117Z,24.00
2019-02-04T04:30:55.024Z,23.90
2019-02-04T04:33:50.435Z,23.90
2019-02-04T04:36:46.575Z,23.90
2019-02-04T04:39:46.513Z,23.90
2019-02-04T04:42:42.370Z,23.90
2019-02-04T04:45:38.067Z,23.90
2019-02-04T04:48:33.739Z,23.90
2019-02-04T04:51:30.680Z,23.90
2019-02-04T04:54:25.608Z,24.00
2019-02-04T04:57:20.352Z,24.00
2019-02-04T05:00:24.132Z,24.00
2019-02-04T05:03:27.403Z,24.10
2019-02-04T05:06:43.019Z,24.20
2019-02-04T05:09:39.277Z,24.20
2019-02-04T05:12:34.228Z,24.30
2019-02-04T05:15:34.181Z,24.40
2019-02-04T05:18:37.898Z,24.50
2019-02-04T05:21:27.165Z,24.50
2019-02-04T05:28:50.495Z,24.70
2019-02-04T05:32:05.797Z,24.80
2019-02-04T05:53:17.937Z,25.30
2019-02-04T06:04:03.372Z,25.60
2019-02-04T06:06:10.667Z,25.70
2019-02-04T06:13:43.093Z,25.80
2019-02-04T06:16:43.448Z,26.00
2019-02-04T06:19:57.678Z,26.00
2019-02-04T06:25:55.354Z,26.10
2019-02-04T06:29:09.436Z,26.20
2019-02-04T06:32:04.565Z,26.30
2019-02-04T06:35:03.079Z,26.40
2019-02-04T06:38:41.938Z,26.40
2019-02-04T06:44:41.132Z,26.60
2019-02-04T06:47:37.336Z,26.60
2019-02-04T06:50:40.282Z,26.80
2019-02-04T06:53:55.424Z,26.90
2019-02-04T06:56:52.526Z,27.00
2019-02-04T07:00:01.888Z,27.10
2019-02-04T07:03:10.544Z,27.10
2019-02-04T07:06:35.547Z,27.30
2019-02-04T07:09:44.633Z,27.40
2019-02-04T07:12:43.433Z,27.60
2019-02-04T07:16:01.082Z,27.80
2019-02-04T07:18:57.374Z,28.00
2019-02-04T07:21:54.145Z,28.20
2019-02-04T07:24:53.264Z,28.40
2019-02-04T07:36:15.225Z,29.00
2019-02-04T07:39:21.560Z,29.20
2019-02-04T07:42:47.476Z,29.30
2019-02-04T07:58:43.946Z,29.40
2019-02-04T08:01:48.745Z,29.40
2019-02-04T08:05:16.364Z,29.40
2019-02-04T08:08:47.347Z,29.40
2019-02-04T08:11:49.474Z,29.40
2019-02-04T08:14:55.320Z,29.30
2019-02-04T08:17:54.483Z,29.40
2019-02-04T08:20:50.637Z,29.40
2019-02-04T08:23:46.999Z,29.50
2019-02-04T08:26:48.268Z,29.50
2019-02-04T08:29:48.628Z,29.50
2019-02-04T08:33:10.594Z,29.60
2019-02-04T08:36:14.687Z,29.60
2019-02-04T08:39:14.771Z,29.60
2019-02-04T08:42:10.171Z,29.60
2019-02-04T08:45:06.623Z,29.60
2019-02-04T08:48:04.605Z,29.60
2019-02-04T08:51:05.200Z,29.60
2019-02-04T08:54:01.214Z,29.60
2019-02-04T08:57:04.856Z,29.60
2019-02-04T09:00:01.215Z,29.60
2019-02-04T09:02:58.616Z,29.80
2019-02-04T09:05:54.563Z,29.90
2019-02-04T09:08:52.973Z,30.10
2019-02-04T09:11:52.635Z,30.30
2019-02-04T09:14:48.504Z,30.30
2019-02-04T09:17:46.474Z,30.40
2019-02-04T09:21:05.166Z,30.50
2019-02-04T09:24:14.681Z,30.50
2019-02-04T09:27:14.402Z,30.60
2019-02-04T09:30:25.440Z,30.70
2019-02-04T09:33:27.419Z,30.80
2019-02-04T09:36:28.460Z,30.90
2019-02-04T09:39:48.950Z,31.00
2019-02-04T09:42:53.326Z,31.20
2019-02-04T09:45:41.566Z,31.50
2019-02-04T09:48:48.230Z,31.70
2019-02-04T09:51:53.604Z,31.90
2019-02-04T09:54:53.377Z,32.10
2019-02-04T09:57:51.592Z,32.30
2019-02-04T10:00:51.093Z,32.30
2019-02-04T10:04:35.141Z,32.30
2019-02-04T10:10:37.766Z,32.20
2019-02-04T10:14:25.218Z,32.10
2019-02-04T10:17:05.870Z,32.00
2019-02-04T10:20:06.628Z,31.90
2019-02-04T10:23:03.400Z,31.80
2019-02-04T10:26:32.153Z,31.70
2019-02-04T10:29:35.997Z,31.70
2019-02-04T10:32:33.399Z,31.60
2019-02-04T10:35:30.090Z,31.50
2019-02-04T10:41:44.599Z,31.40
2019-02-04T10:44:41.414Z,31.40
2019-02-04T10:48:04.020Z,31.40
2019-02-04T10:54:09.263Z,31.30
2019-02-04T10:57:43.197Z,31.30
2019-02-04T11:00:27.355Z,31.20
2019-02-04T11:03:25.910Z,31.20
2019-02-04T11:06:25.290Z,31.10
2019-02-04T11:09:29.982Z,31.10
2019-02-04T11:12:33.431Z,31.00
2019-02-04T11:15:29.330Z,30.90
2019-02-04T11:18:30.914Z,30.90
2019-02-04T11:22:00.411Z,30.80
2019-02-04T11:24:58.680Z,30.70
2019-02-04T11:27:58.717Z,30.60
2019-02-04T11:31:18.178Z,30.60
2019-02-04T11:34:23.041Z,30.50
2019-02-04T11:37:56.098Z,30.40
2019-02-04T11:41:01.074Z,30.30
2019-02-04T11:44:04.564Z,30.20
2019-02-04T11:47:10.156Z,30.10
2019-02-04T11:50:18.267Z,30.00
2019-02-04T11:53:42.111Z,29.90
2019-02-04T11:56:42.036Z,29.70
2019-02-04T11:59:49.552Z,29.50
2019-02-04T12:03:20.601Z,29.40
2019-02-04T12:06:53.320Z,29.30
2019-02-04T12:10:05.705Z,29.10
2019-02-04T12:13:25.902Z,29.00
2019-02-04T12:16:22.618Z,28.80
2019-02-04T12:19:26.877Z,28.70
2019-02-04T12:22:23.352Z,28.60
2019-02-04T12:25:28.461Z,28.50
2019-02-04T12:28:25.318Z,28.30
2019-02-04T12:31:21.061Z,28.20
2019-02-04T12:34:16.635Z,28.10
2019-02-04T12:37:20.096Z,28.00
2019-02-04T12:40:16.740Z,27.90
2019-02-04T12:43:34.734Z,27.80
2019-02-04T12:46:46.485Z,27.70
2019-02-04T12:50:02.384Z,27.60
2019-02-04T12:53:10.214Z,27.50
2019-02-04T12:56:16.604Z,27.40
2019-02-04T12:59:33.722Z,27.40
2019-02-04T13:02:43.351Z,27.30
2019-02-04T13:06:22.264Z,27.20
2019-02-04T13:09:37.603Z,27.20
2019-02-04T13:12:45.963Z,27.10
2019-02-04T13:15:57.592Z,27.10
2019-02-04T13:19:10.541Z,27.00
2019-02-04T13:22:15.947Z,27.00
2019-02-04T13:25:23.696Z,26.90
2019-02-04T13:28:34.798Z,26.90
2019-02-04T13:31:44.368Z,26.80
2019-02-04T13:34:52.128Z,26.80
2019-02-04T13:38:00.797Z,26.80
2019-02-04T13:41:15.219Z,26.70
2019-02-04T13:44:28.269Z,26.70
2019-02-04T13:47:44.125Z,26.60
2019-02-04T13:51:02.082Z,26.60
2019-02-04T13:54:11.376Z,26.50
2019-02-04T13:57:17.407Z,26.50
2019-02-04T14:00:26.957Z,26.40
2019-02-04T14:03:39.478Z,26.40
2019-02-04T14:06:49.004Z,26.40
2019-02-04T14:09:59.140Z,26.30
2019-02-04T14:13:06.846Z,26.30
2019-02-04T14:16:15.840Z,26.20
2019-02-04T14:19:28.712Z,26.20
2019-02-04T14:22:37.078Z,26.20
2019-02-04T14:25:45.919Z,26.10
2019-02-04T14:28:59.187Z,26.10
2019-02-04T14:32:08.372Z,26.00
2019-02-04T14:35:18.058Z,26.00
2019-02-04T14:38:27.087Z,26.00
2019-02-04T14:41:35.725Z,25.90
2019-02-04T14:45:07.138Z,25.90
2019-02-04T14:48:41.162Z,25.90
2019-02-04T14:52:21.018Z,25.80
2019-02-04T14:56:01.322Z,25.80
2019-02-04T15:06:29.262Z,25.60
2019-02-04T15:42:43.101Z,25.30
2019-02-04T16:06:51.204Z,25.20
2019-02-04T16:09:51.026Z,25.20
2019-02-04T16:12:51.402Z,25.20
2019-02-04T16:15:55.961Z,25.10
2019-02-04T16:18:55.990Z,25.10
2019-02-04T16:22:01.945Z,25.10
2019-02-04T16:25:06.119Z,25.00
2019-02-04T16:28:09.754Z,25.00
2019-02-04T16:31:12.406Z,25.00
2019-02-04T16:34:16.467Z,25.00
2019-02-04T16:37:21.647Z,25.00
2019-02-04T16:40:27.035Z,24.90
2019-02-04T16:43:32.405Z,24.90
2019-02-04T16:46:36.270Z,24.90
2019-02-04T16:49:41.119Z,24.90
2019-02-04T16:52:48.083Z,24.80
2019-02-04T16:55:48.882Z,24.80
2019-02-04T16:58:53.631Z,24.70
2019-02-04T17:01:53.285Z,24.70
2019-02-04T17:04:58.998Z,24.70
2019-02-04T17:08:05.117Z,24.70
2019-02-04T17:11:11.507Z,24.60
2019-02-04T17:14:16.325Z,24.60
2019-02-04T17:17:21.566Z,24.60
2019-02-04T17:20:36.797Z,24.60
2019-02-04T17:23:42.178Z,24.60
2019-02-04T17:26:45.775Z,24.50
2019-02-04T17:29:46.631Z,24.50
2019-02-04T17:32:46.649Z,24.50
2019-02-04T17:35:47.694Z,24.50
2019-02-04T17:38:48.795Z,24.50
2019-02-04T17:41:53.009Z,24.40
2019-02-04T17:44:52.776Z,24.40
2019-02-04T17:47:57.713Z,24.40
2019-02-04T17:51:02.709Z,24.40
2019-02-04T17:54:07.794Z,24.40
2019-02-04T17:57:13.778Z,24.30
2019-02-04T18:00:26.922Z,24.30
2019-02-04T18:03:31.607Z,24.30
2019-02-04T18:06:36.221Z,24.30
2019-02-04T18:09:40.554Z,24.30
2019-02-04T18:12:46.127Z,24.20
2019-02-04T18:15:47.750Z,24.20
2019-02-04T18:18:51.366Z,24.20
2019-02-04T18:21:55.296Z,24.20
2019-02-04T18:24:59.015Z,24.20
2019-02-04T18:28:03.805Z,24.20
2019-02-04T18:31:08.330Z,24.20
2019-02-04T18:34:12.421Z,24.10
2019-02-04T18:37:16.471Z,24.10
2019-02-04T18:40:21.374Z,24.10
2019-02-04T18:43:26.554Z,24.10
2019-02-04T18:46:30.971Z,24.10
2019-02-04T18:49:34.952Z,24.10
2019-02-04T18:52:38.646Z,24.00
2019-02-04T18:55:40.339Z,24.00
2019-02-04T18:58:44.531Z,24.00
2019-02-04T19:01:48.746Z,24.00
2019-02-04T19:04:53.944Z,23.90
2019-02-04T19:07:58.704Z,23.90
2019-02-04T19:11:02.759Z,23.80
2019-02-04T19:14:07.953Z,23.80
2019-02-04T19:17:11.413Z,23.80
2019-02-04T19:20:15.367Z,23.80
2019-02-04T19:23:18.596Z,23.70
2019-02-04T19:26:22.201Z,23.70
2019-02-04T19:29:25.756Z,23.70
2019-02-04T19:32:26.200Z,23.70
2019-02-04T19:35:29.630Z,23.60
2019-02-04T19:38:33.840Z,23.60
2019-02-04T19:41:35.870Z,23.50
2019-02-04T19:44:34.993Z,23.50
2019-02-04T19:47:38.552Z,23.50
2019-02-04T19:50:38.383Z,23.40
2019-02-04T19:53:41.926Z,23.40
2019-02-04T19:56:45.872Z,23.40
2019-02-04T19:59:51.502Z,23.40
2019-02-04T20:02:55.797Z,23.30
2019-02-04T20:05:59.429Z,23.20
2019-02-04T20:09:05.281Z,23.30
2019-02-04T20:12:06.936Z,23.30
2019-02-04T20:15:13.171Z,23.20
2019-02-04T20:18:17.332Z,23.20
2019-02-04T20:21:21.249Z,23.20
2019-02-04T20:24:32.872Z,23.10
2019-02-04T20:27:29.245Z,23.10
2019-02-04T20:30:31.147Z,23.10
2019-02-04T20:33:29.820Z,23.10
2019-02-04T20:36:31.181Z,23.00
2019-02-04T20:39:30.960Z,23.10
2019-02-04T20:42:34.505Z,23.00
2019-02-04T20:45:38.564Z,23.00
2019-02-04T20:48:37.880Z,23.00
2019-02-04T20:51:41.001Z,23.00
2019-02-04T20:54:45.324Z,23.00
2019-02-04T20:57:48.791Z,23.00
2019-02-04T21:00:53.103Z,23.00
2019-02-04T21:03:55.984Z,23.00
2019-02-04T21:07:00.185Z,23.00
2019-02-04T21:10:04.447Z,22.90
2019-02-04T21:13:08.181Z,22.90
2019-02-04T21:16:11.459Z,22.90
2019-02-04T21:19:16.243Z,22.90
2019-02-04T21:22:20.312Z,22.90
2019-02-04T21:25:23.560Z,22.90
2019-02-04T21:28:26.674Z,22.90
2019-02-04T21:31:26.411Z,22.90
2019-02-04T21:34:25.675Z,22.80
2019-02-04T21:37:29.770Z,22.80
2019-02-04T21:40:33.469Z,22.80
2019-02-04T21:43:37.090Z,22.80
2019-02-04T21:46:40.708Z,22.80
2019-02-04T21:49:44.550Z,22.80
2019-02-04T21:52:47.745Z,22.80
2019-02-04T21:55:51.812Z,22.80
2019-02-04T21:58:55.644Z,22.80
2019-02-04T22:01:58.346Z,22.80
2019-02-04T22:05:01.880Z,22.80
2019-02-04T22:08:06.125Z,22.80
2019-02-04T22:11:10.464Z,22.80
2019-02-04T22:14:13.993Z,22.80
2019-02-04T22:17:17.482Z,22.80
2019-02-04T22:20:21.502Z,22.80
2019-02-04T22:23:25.474Z,22.80
2019-02-04T22:26:29.252Z,22.80
2019-02-04T22:29:32.509Z,22.70
2019-02-04T22:32:35.973Z,22.70
2019-02-04T22:35:39.704Z,22.70
2019-02-04T22:38:42.976Z,22.60
2019-02-04T22:41:45.530Z,22.60
2019-02-04T22:44:48.879Z,22.50
2019-02-04T22:47:53.159Z,22.50
2019-02-04T22:50:57.226Z,22.50
2019-02-04T22:54:00.244Z,22.40
2019-02-04T22:57:04.195Z,22.40
2019-02-04T23:00:08.138Z,22.30
2019-02-04T23:03:11.973Z,22.30
2019-02-04T23:06:16.495Z,22.30
2019-02-04T23:09:17.058Z,22.20
2019-02-04T23:12:15.689Z,22.20
2019-02-04T23:15:16.735Z,22.20
2019-02-04T23:18:21.599Z,22.10
2019-02-04T23:21:22.497Z,22.10
2019-02-04T23:24:27.754Z,22.10
2019-02-04T23:27:31.508Z,22.10
2019-02-04T23:30:35.326Z,22.10
2019-02-04T23:33:39.430Z,22.00
2019-02-04T23:36:42.863Z,22.00
2019-02-04T23:39:46.402Z,22.00
2019-02-04T23:42:49.559Z,22.00
2019-02-04T23:45:53.294Z,22.00
2019-02-04T23:48:56.408Z,21.90
2019-02-04T23:51:59.731Z,21.90
2019-02-04T23:55:03.291Z,21.90
2019-02-04T23:58:07.176Z,21.90
